Time;durP1;ratioP1;P1;durP2;ratioP2;P2;SDS_P1;SDS_P2;PMS_P1;PMS_P2;Temp;Humidity;BMP_temperature;BMP_pressure;BME280_temperature;BME280_humidity;BME280_pressure;Samples;Min_cycle;Max_cycle;Signal;HPM_P1;HPM_P2
2023/01/26 00:02:09;;;;;;;;;;;;;;;-0.82;100.00;102512.97;4982999;28;20684;-64
2023/01/26 00:04:36;;;;;;;;;;;;;;;-0.78;100.00;102512.00;5003175;28;19979;-64
2023/01/26 00:07:02;;;;;;;;;;;;;;;-0.74;100.00;102502.50;4986889;28;19952;-64
2023/01/26 00:09:28;;;;;;;;;;;;;;;-0.72;100.00;102505.88;5006166;28;19933;-64
2023/01/26 00:11:55;;;;;;;;;;;;;;;-0.64;100.00;102497.09;5001572;28;19965;-64
2023/01/26 00:14:21;;;;;;;;;;;;;;;-0.74;100.00;102499.91;4992299;28;19930;-64
2023/01/26 00:16:47;;;;;;;;;;;;;;;-0.70;100.00;102491.25;5004990;28;19960;-64
2023/01/26 00:19:13;;;;;;;;;;;;;;;-0.74;100.00;102495.59;4999126;28;19996;-64
2023/01/26 00:21:40;;;;;;;;;;;;;;;-0.68;100.00;102499.78;5004143;28;19929;-64
2023/01/26 00:24:06;;;;;;;;;;;;;;;-0.67;100.00;102486.84;4997766;28;20444;-64
2023/01/26 00:26:32;;;;;;;;;;;;;;;-0.62;100.00;102487.59;4965480;28;19972;-65
2023/01/26 00:28:59;;;;;;;;;;;;;;;-0.64;100.00;102480.78;4995143;28;19937;-64
2023/01/26 00:31:26;;;;;;;;;;;;;;;-0.61;100.00;102479.00;4995288;28;19988;-65
2023/01/26 00:33:53;;;;;;;;;;;;;;;-0.55;100.00;102485.72;5005280;28;19937;-64
2023/01/26 00:36:20;;;;;;;;;;;;;;;-0.51;100.00;102479.66;4997263;28;19933;-64
2023/01/26 00:38:46;;;;;;;;;;;;;;;-0.51;100.00;102471.91;4995653;28;19992;-65
2023/01/26 00:42:05;;;;;;;;;;;;;;;-0.48;100.00;102471.00;4990504;28;19933;-65
2023/01/26 00:43:59;;;;;;;;;;;;;;;-0.49;100.00;102472.72;4991751;28;19933;-64
2023/01/26 00:46:26;;;;;;;;;;;;;;;-0.57;100.00;102461.72;4992519;28;19934;-65
2023/01/26 00:48:53;;;;;;;;;;;;;;;-0.59;100.00;102453.16;5003495;28;20008;-65
2023/01/26 00:51:19;;;;;;;;;;;;;;;-0.61;100.00;102453.22;5005978;28;20048;-65
2023/01/26 00:53:46;;;;;;;;;;;;;;;-0.56;100.00;102449.69;4993777;28;19933;-65
2023/01/26 00:56:13;;;;;;;;;;;;;;;-0.53;100.00;102455.63;4991482;28;19925;-65
2023/01/26 00:58:41;;;;;;;;;;;;;;;-0.49;100.00;102458.97;4996344;28;20024;-65
2023/01/26 01:01:07;;;;;;;;;;;;;;;-0.42;100.00;102473.44;5005073;28;19936;-65
2023/01/26 01:03:33;;;;;;;;;;;;;;;-0.45;100.00;102461.47;4995503;28;19933;-65
2023/01/26 01:06:00;;;;;;;;;;;;;;;-0.37;100.00;102458.72;5003855;28;19941;-64
2023/01/26 01:08:26;;;;;;;;;;;;;;;-0.41;100.00;102457.94;5000225;28;19937;-65
2023/01/26 01:11:01;;;;;;;;;;;;;;;-0.34;100.00;102465.50;4994509;28;19941;-65
2023/01/26 01:13:28;;;;;;;;;;;;;;;-0.33;100.00;102457.75;5004648;28;19930;-64
2023/01/26 01:15:54;;;;;;;;;;;;;;;-0.32;100.00;102453.44;4996948;28;19940;-65
2023/01/26 01:18:20;;;;;;;;;;;;;;;-0.43;100.00;102454.53;5001780;28;19929;-65
2023/01/26 01:20:47;;;;;;;;;;;;;;;-0.42;100.00;102461.38;4980084;28;19936;-65
2023/01/26 01:23:13;;;;;;;;;;;;;;;-0.44;100.00;102446.84;4999084;28;20100;-65
2023/01/26 01:25:39;;;;;;;;;;;;;;;-0.61;100.00;102445.50;5006782;28;20305;-64
2023/01/26 01:28:06;;;;;;;;;;;;;;;-0.60;100.00;102446.34;4990680;28;20020;-65
2023/01/26 01:30:32;;;;;;;;;;;;;;;-0.61;100.00;102444.63;5005274;28;19929;-65
2023/01/26 01:32:58;;;;;;;;;;;;;;;-0.60;100.00;102452.31;5001744;28;19952;-65
2023/01/26 01:35:24;;;;;;;;;;;;;;;-0.62;100.00;102448.94;4987796;28;19930;-65
2023/01/26 01:37:51;;;;;;;;;;;;;;;-0.58;100.00;102447.16;4996025;28;19943;-65
2023/01/26 01:40:17;;;;;;;;;;;;;;;-0.53;100.00;102440.16;5008897;28;19929;-65
2023/01/26 01:42:48;;;;;;;;;;;;;;;-0.54;100.00;102443.63;5003177;28;19930;-65
2023/01/26 01:45:37;;;;;;;;;;;;;;;-0.50;100.00;102447.81;4997483;28;19949;-65
2023/01/26 01:48:05;;;;;;;;;;;;;;;-0.47;100.00;102447.75;4996147;28;20374;-65
2023/01/26 01:50:35;;;;;;;;;;;;;;;-0.41;100.00;102442.47;4983073;28;19937;-65
2023/01/26 01:53:02;;;;;;;;;;;;;;;-0.54;100.00;102441.03;4997895;28;19929;-64
2023/01/26 01:55:29;;;;;;;;;;;;;;;-0.54;100.00;102445.34;5000490;28;20381;-65
2023/01/26 01:57:57;;;;;;;;;;;;;;;-0.50;100.00;102446.97;5007523;28;20012;-65
2023/01/26 02:00:24;;;;;;;;;;;;;;;-0.46;100.00;102436.53;4998774;28;19936;-63
2023/01/26 02:03:10;;;;;;;;;;;;;;;-0.44;100.00;102431.38;4994526;28;20040;-64
2023/01/26 02:05:55;;;;;;;;;;;;;;;-0.46;100.00;102431.38;5001754;28;19930;-64
2023/01/26 02:08:28;;;;;;;;;;;;;;;-0.42;100.00;102427.00;5005828;28;19934;-64
2023/01/26 02:10:57;;;;;;;;;;;;;;;-0.53;100.00;102423.84;5015821;28;19956;-65
2023/01/26 02:13:24;;;;;;;;;;;;;;;-0.55;100.00;102420.44;5017369;28;19992;-63
2023/01/26 02:15:51;;;;;;;;;;;;;;;-0.61;100.00;102424.00;5010955;28;19936;-65
2023/01/26 02:18:17;;;;;;;;;;;;;;;-0.59;100.00;102417.09;4999977;28;20003;-63
2023/01/26 02:20:45;;;;;;;;;;;;;;;-0.61;100.00;102416.28;5003001;28;19932;-63
2023/01/26 02:23:19;;;;;;;;;;;;;;;-0.54;100.00;102422.16;5003307;28;20375;-65
2023/01/26 02:25:48;;;;;;;;;;;;;;;-0.56;100.00;102411.88;5008484;28;19937;-65
2023/01/26 02:28:16;;;;;;;;;;;;;;;-0.58;100.00;102411.06;5007568;28;20382;-64
2023/01/26 02:30:42;;;;;;;;;;;;;;;-0.54;100.00;102420.41;5001365;28;19936;-64
2023/01/26 02:33:22;;;;;;;;;;;;;;;-0.52;100.00;102412.66;4993552;28;19930;-63
2023/01/26 02:35:48;;;;;;;;;;;;;;;-0.55;100.00;102420.44;5000968;28;20382;-65
2023/01/26 02:38:16;;;;;;;;;;;;;;;-0.56;100.00;102416.19;5006893;28;19944;-65
2023/01/26 02:40:47;;;;;;;;;;;;;;;-0.64;100.00;102411.22;4996198;28;19936;-64
2023/01/26 02:43:14;;;;;;;;;;;;;;;-0.61;100.00;102412.00;5007501;28;19925;-63
2023/01/26 02:45:41;;;;;;;;;;;;;;;-0.55;100.00;102416.13;4999844;28;20694;-64
2023/01/26 02:48:07;;;;;;;;;;;;;;;-0.48;100.00;102407.38;4987383;28;19934;-64
2023/01/26 02:50:34;;;;;;;;;;;;;;;-0.49;100.00;102410.00;5000756;28;19930;-64
2023/01/26 02:53:01;;;;;;;;;;;;;;;-0.55;100.00;102407.56;4998813;28;19991;-64
2023/01/26 02:55:27;;;;;;;;;;;;;;;-0.49;100.00;102407.41;5002822;28;19941;-65
2023/01/26 02:57:57;;;;;;;;;;;;;;;-0.48;100.00;102417.69;5000916;28;19929;-63
2023/01/26 03:00:25;;;;;;;;;;;;;;;-0.53;100.00;102414.41;4998450;28;20655;-63
2023/01/26 03:02:53;;;;;;;;;;;;;;;-0.48;100.00;102415.09;4996170;28;20400;-63
2023/01/26 03:05:19;;;;;;;;;;;;;;;-0.48;100.00;102404.78;4994756;28;19930;-64
2023/01/26 03:07:46;;;;;;;;;;;;;;;-0.46;100.00;102404.78;4994802;28;19930;-63
2023/01/26 03:10:14;;;;;;;;;;;;;;;-0.42;100.00;102407.22;4990892;28;20291;-63
2023/01/26 03:12:41;;;;;;;;;;;;;;;-0.44;100.00;102411.56;5000985;28;20047;-64
2023/01/26 03:27:25;;;;;;;;;;;;;;;-0.26;100.00;102412.03;5006626;28;19930;-64
2023/01/26 03:29:00;;;;;;;;;;;;;;;-0.33;100.00;102402.72;4996324;28;20167;-64
2023/01/26 03:31:27;;;;;;;;;;;;;;;-0.40;100.00;102407.19;5006650;28;19929;-63
2023/01/26 03:33:53;;;;;;;;;;;;;;;-0.33;100.00;102406.19;5002238;28;19952;-65
2023/01/26 03:36:19;;;;;;;;;;;;;;;-0.30;100.00;102406.09;5008407;28;19941;-65
2023/01/26 03:38:46;;;;;;;;;;;;;;;-0.33;100.00;102403.59;5000900;28;19929;-66
2023/01/26 03:57:41;;;;;;;;;;;;;;;-0.04;100.00;102400.28;5003398;28;19939;-65
2023/01/26 04:00:08;;;;;;;;;;;;;;;-0.15;100.00;102394.56;5002289;28;19933;-65
2023/01/26 04:08:23;;;;;;;;;;;;;;;-0.28;100.00;102406.06;4994638;28;19929;-64
2023/01/26 04:10:50;;;;;;;;;;;;;;;-0.26;100.00;102401.72;4999996;28;19933;-64
2023/01/26 04:21:34;;;;;;;;;;;;;;;-0.05;100.00;102408.91;4998334;28;20597;-65
2023/01/26 04:24:08;;;;;;;;;;;;;;;0.07;100.00;102402.59;4993542;28;19929;-65
2023/01/26 04:26:35;;;;;;;;;;;;;;;0.10;100.00;102401.66;5003634;28;20011;-64
2023/01/26 04:29:06;;;;;;;;;;;;;;;0.07;100.00;102397.44;5002419;28;20201;-66
2023/01/26 04:31:32;;;;;;;;;;;;;;;-0.04;100.00;102402.88;4997362;28;19930;-63
2023/01/26 04:33:59;;;;;;;;;;;;;;;-0.01;100.00;102391.63;5004659;28;20016;-64
2023/01/26 04:36:26;;;;;;;;;;;;;;;0.06;100.00;102402.63;4990756;28;19937;-64
2023/01/26 04:38:52;;;;;;;;;;;;;;;0.13;100.00;102402.41;5000358;28;19939;-64
2023/01/26 04:41:19;;;;;;;;;;;;;;;0.07;100.00;102394.00;4983996;28;19929;-65
2023/01/26 04:43:45;;;;;;;;;;;;;;;0.13;100.00;102396.41;5000900;28;19930;-64
2023/01/26 04:46:11;;;;;;;;;;;;;;;0.19;100.00;102393.69;4999401;28;19933;-65
2023/01/26 04:48:38;;;;;;;;;;;;;;;0.25;100.00;102390.09;5001987;28;20402;-65
2023/01/26 04:51:06;;;;;;;;;;;;;;;0.19;100.00;102391.94;4997939;28;19960;-64
2023/01/26 04:53:33;;;;;;;;;;;;;;;0.23;100.00;102391.88;4989526;28;20051;-65
2023/01/26 04:55:59;;;;;;;;;;;;;;;0.19;100.00;102397.09;4997971;28;19930;-64
2023/01/26 04:58:26;;;;;;;;;;;;;;;0.20;100.00;102392.81;5002746;28;19930;-65
2023/01/26 05:00:53;;;;;;;;;;;;;;;0.26;100.00;102395.22;5006046;28;19930;-65
2023/01/26 05:03:20;;;;;;;;;;;;;;;0.30;100.00;102385.66;4991342;28;20016;-66
2023/01/26 05:05:48;;;;;;;;;;;;;;;0.37;100.00;102392.31;5000784;28;20020;-65
2023/01/26 05:08:14;;;;;;;;;;;;;;;0.39;100.00;102382.81;5009012;28;19934;-65
2023/01/26 05:10:41;;;;;;;;;;;;;;;0.38;100.00;102381.97;4991028;28;19934;-65
2023/01/26 05:13:08;;;;;;;;;;;;;;;0.38;100.00;102374.22;5009211;28;19937;-66
2023/01/26 05:15:34;;;;;;;;;;;;;;;0.46;100.00;102378.34;5002907;28;19941;-64
2023/01/26 05:18:01;;;;;;;;;;;;;;;0.50;100.00;102379.94;4997057;28;19937;-64
2023/01/26 05:20:27;;;;;;;;;;;;;;;0.47;100.00;102383.47;5005677;28;19936;-66
2023/01/26 05:22:54;;;;;;;;;;;;;;;0.51;100.00;102384.19;5001995;28;19926;-65
2023/01/26 05:25:20;;;;;;;;;;;;;;;0.53;100.00;102379.84;5003814;28;19933;-66
2023/01/26 05:27:46;;;;;;;;;;;;;;;0.51;100.00;102385.06;5003217;28;19930;-65
2023/01/26 05:30:13;;;;;;;;;;;;;;;0.55;100.00;102381.50;5003580;28;20223;-64
2023/01/26 05:32:40;;;;;;;;;;;;;;;0.52;100.00;102378.16;4978888;28;19936;-64
2023/01/26 05:35:07;;;;;;;;;;;;;;;0.58;100.00;102375.41;5002792;28;19929;-66
2023/01/26 05:37:33;;;;;;;;;;;;;;;0.62;100.00;102368.41;5008935;28;19968;-65
2023/01/26 05:40:00;;;;;;;;;;;;;;;0.58;100.00;102363.31;5002046;28;19937;-64
2023/01/26 05:42:26;;;;;;;;;;;;;;;0.62;100.00;102373.56;5007966;28;19936;-64
2023/01/26 05:44:52;;;;;;;;;;;;;;;0.66;100.00;102378.59;4996654;28;19936;-65
2023/01/26 05:47:19;;;;;;;;;;;;;;;0.59;100.00;102377.09;5003941;28;19929;-64
2023/01/26 05:49:45;;;;;;;;;;;;;;;0.61;100.00;102377.91;5001055;28;19940;-65
2023/01/26 05:52:13;;;;;;;;;;;;;;;0.57;100.00;102378.88;5008424;28;20298;-65
2023/01/26 05:54:40;;;;;;;;;;;;;;;0.62;100.00;102371.00;4997457;28;20383;-64
2023/01/26 05:57:06;;;;;;;;;;;;;;;0.57;100.00;102377.13;5001364;28;19929;-64
2023/01/26 05:59:32;;;;;;;;;;;;;;;0.56;100.00;102372.84;4985983;28;19929;-64
2023/01/26 06:01:59;;;;;;;;;;;;;;;0.57;100.00;102381.47;4991275;28;20654;-64
2023/01/26 06:04:26;;;;;;;;;;;;;;;0.63;100.00;102386.44;5008610;28;19976;-66
2023/01/26 06:06:53;;;;;;;;;;;;;;;0.63;100.00;102388.16;5001801;28;20020;-64
2023/01/26 06:09:19;;;;;;;;;;;;;;;0.67;100.00;102388.06;5007370;28;20411;-64
2023/01/26 06:11:46;;;;;;;;;;;;;;;0.65;100.00;102392.41;5006925;28;19929;-64
2023/01/26 06:14:12;;;;;;;;;;;;;;;0.75;100.00;102391.25;4993936;28;19929;-64
2023/01/26 06:16:39;;;;;;;;;;;;;;;0.72;100.00;102383.59;4999601;28;20380;-62
2023/01/26 06:19:05;;;;;;;;;;;;;;;0.64;100.00;102389.88;5001414;28;20441;-63
2023/01/26 06:21:31;;;;;;;;;;;;;;;0.65;100.00;102386.38;5001479;28;19945;-65
2023/01/26 06:23:58;;;;;;;;;;;;;;;0.69;100.00;102395.75;4995972;28;19929;-64
2023/01/26 06:26:24;;;;;;;;;;;;;;;0.63;100.00;102390.75;5004665;28;20449;-64
2023/01/26 06:28:51;;;;;;;;;;;;;;;0.66;100.00;102396.69;4998602;28;19929;-63
2023/01/26 06:31:18;;;;;;;;;;;;;;;0.64;100.00;102397.63;4995072;28;20024;-65
2023/01/26 06:33:45;;;;;;;;;;;;;;;0.69;100.00;102388.03;5007553;28;19930;-63
2023/01/26 06:36:12;;;;;;;;;;;;;;;0.70;100.00;102397.44;5000833;28;19933;-63
2023/01/26 06:38:44;;;;;;;;;;;;;;;0.74;100.00;102397.31;4997259;28;19933;-63
2023/01/26 06:41:10;;;;;;;;;;;;;;;0.76;100.00;102390.34;4995226;28;19968;-64
2023/01/26 06:43:36;;;;;;;;;;;;;;;0.84;100.00;102394.47;5001893;28;19933;-63
2023/01/26 06:46:04;;;;;;;;;;;;;;;0.84;100.00;102400.47;5002009;28;19940;-64
2023/01/26 06:48:31;;;;;;;;;;;;;;;0.88;100.00;102407.25;4999903;28;19929;-63
2023/01/26 06:51:16;;;;;;;;;;;;;;;0.88;100.00;102415.00;5000198;28;19937;-64
2023/01/26 06:53:46;;;;;;;;;;;;;;;0.89;100.00;102416.69;4996105;28;19936;-64
2023/01/26 06:56:13;;;;;;;;;;;;;;;0.88;100.00;102411.56;4990053;28;19936;-64
2023/01/26 06:58:39;;;;;;;;;;;;;;;0.93;100.00;102410.53;4992808;28;19936;-63
2023/01/26 07:01:06;;;;;;;;;;;;;;;0.95;100.00;102401.00;5003297;28;19952;-64
2023/01/26 07:03:32;;;;;;;;;;;;;;;0.98;100.00;102412.97;5003206;28;20445;-64
2023/01/26 07:05:59;;;;;;;;;;;;;;;1.04;100.00;102411.94;4994920;28;19936;-63
2023/01/26 07:08:25;;;;;;;;;;;;;;;1.05;100.00;102416.25;4996518;28;19929;-64
2023/01/26 07:10:51;;;;;;;;;;;;;;;1.05;100.00;102413.66;4988898;28;19937;-64
2023/01/26 07:13:18;;;;;;;;;;;;;;;1.09;100.00;102412.66;5006873;28;19929;-64
2023/01/26 07:15:44;;;;;;;;;;;;;;;1.07;100.00;102415.28;4997761;28;20318;-63
2023/01/26 07:18:10;;;;;;;;;;;;;;;1.09;100.00;102416.09;5003670;28;19936;-63
2023/01/26 07:20:37;;;;;;;;;;;;;;;1.10;100.00;102420.38;5004377;28;20028;-64
2023/01/26 07:23:03;;;;;;;;;;;;;;;1.14;100.00;102416.81;4989865;28;19937;-63
2023/01/26 07:25:29;;;;;;;;;;;;;;;1.14;100.00;102413.41;5001267;28;19956;-62
2023/01/26 07:27:56;;;;;;;;;;;;;;;1.15;100.00;102420.25;4998723;28;20004;-64
2023/01/26 07:30:23;;;;;;;;;;;;;;;1.19;100.00;102408.91;5004513;28;19938;-63
2023/01/26 07:32:49;;;;;;;;;;;;;;;1.23;100.00;102413.09;4964979;28;19930;-64
2023/01/26 07:35:16;;;;;;;;;;;;;;;1.24;100.00;102413.97;5001270;28;20298;-67
2023/01/26 07:37:42;;;;;;;;;;;;;;;1.25;100.00;102413.88;4996808;28;19937;-64
2023/01/26 07:40:09;;;;;;;;;;;;;;;1.29;100.00;102419.81;4996342;28;19936;-65
2023/01/26 07:42:35;;;;;;;;;;;;;;;1.28;100.00;102425.91;4998256;28;19929;-64
2023/01/26 07:45:02;;;;;;;;;;;;;;;1.31;100.00;102426.66;4997241;28;19933;-65
2023/01/26 07:47:28;;;;;;;;;;;;;;;1.28;100.00;102428.47;5004242;28;19976;-65
2023/01/26 07:49:55;;;;;;;;;;;;;;;1.26;100.00;102433.69;4995562;28;20446;-64
2023/01/26 07:52:21;;;;;;;;;;;;;;;1.27;100.00;102437.94;4997841;28;19932;-64
2023/01/26 07:54:47;;;;;;;;;;;;;;;1.27;100.00;102432.78;4999528;28;19926;-65
2023/01/26 07:57:13;;;;;;;;;;;;;;;1.26;100.00;102432.84;4985911;28;19930;-64
2023/01/26 07:59:40;;;;;;;;;;;;;;;1.29;100.00;102430.16;4994881;28;19938;-63
2023/01/26 08:02:08;;;;;;;;;;;;;;;1.32;100.00;102424.91;4987571;28;19929;-64
2023/01/26 08:04:34;;;;;;;;;;;;;;;1.35;100.00;102436.00;4978559;28;19929;-64
2023/01/26 08:07:01;;;;;;;;;;;;;;;1.40;100.00;102433.28;4994042;28;19929;-64
2023/01/26 08:09:27;;;;;;;;;;;;;;;1.43;100.00;102447.84;5000738;28;20382;-63
2023/01/26 08:11:55;;;;;;;;;;;;;;;1.47;100.00;102444.25;5001267;28;20007;-64
2023/01/26 08:14:22;;;;;;;;;;;;;;;1.43;100.00;102446.13;4997952;28;19940;-64
2023/01/26 08:16:48;;;;;;;;;;;;;;;1.39;100.00;102441.91;5004171;28;20012;-66
2023/01/26 08:19:14;;;;;;;;;;;;;;;1.43;100.00;102445.25;4983907;28;20349;-65
2023/01/26 08:21:41;;;;;;;;;;;;;;;1.44;100.00;102441.78;4997652;28;20494;-64
2023/01/26 08:24:09;;;;;;;;;;;;;;;1.44;100.00;102447.78;4982112;28;19929;-64
2023/01/26 08:26:36;;;;;;;;;;;;;;;1.52;100.00;102443.22;4997467;28;20402;-64
2023/01/26 08:29:02;;;;;;;;;;;;;;;1.57;100.00;102454.28;4994706;28;19936;-64
2023/01/26 08:31:28;;;;;;;;;;;;;;;1.60;100.00;102444.72;4989033;28;19929;-65
2023/01/26 08:33:55;;;;;;;;;;;;;;;1.58;100.00;102448.19;4988131;28;20677;-64
2023/01/26 08:36:22;;;;;;;;;;;;;;;1.60;100.00;102453.31;4996177;28;20003;-65
2023/01/26 08:38:49;;;;;;;;;;;;;;;1.65;100.00;102448.88;4999933;28;19929;-64
2023/01/26 08:41:15;;;;;;;;;;;;;;;1.68;100.00;102446.16;4996687;28;19929;-66
2023/01/26 08:43:41;;;;;;;;;;;;;;;1.66;100.00;102445.38;4997500;28;19933;-64
2023/01/26 08:46:08;;;;;;;;;;;;;;;1.67;100.00;102444.50;4997177;28;20682;-68
2023/01/26 08:48:34;;;;;;;;;;;;;;;1.63;100.00;102440.31;4988644;28;19929;-65
2023/01/26 08:51:02;;;;;;;;;;;;;;;1.65;100.00;102445.44;4985476;28;19926;-65
2023/01/26 08:53:29;;;;;;;;;;;;;;;1.49;100.00;102450.22;4975321;28;19934;-65
2023/01/26 08:55:59;;;;;;;;;;;;;;;1.62;100.00;102455.88;4999352;28;19937;-65
2023/01/26 08:58:25;;;;;;;;;;;;;;;1.65;100.00;102445.44;4995121;28;19929;-64
2023/01/26 09:00:53;;;;;;;;;;;;;;;1.68;100.00;102453.09;4996201;28;19956;-65
2023/01/26 09:03:19;;;;;;;;;;;;;;;1.68;100.00;102451.34;4998471;28;19951;-65
2023/01/26 09:05:46;;;;;;;;;;;;;;;1.73;100.00;102456.38;4995374;28;19926;-64
2023/01/26 09:08:12;;;;;;;;;;;;;;;1.78;100.00;102449.31;5002891;28;19980;-64
2023/01/26 09:10:39;;;;;;;;;;;;;;;1.80;100.00;102446.66;4989970;28;19929;-63
2023/01/26 09:13:05;;;;;;;;;;;;;;;1.86;100.00;102446.47;4997818;28;20075;-65
2023/01/26 09:15:32;;;;;;;;;;;;;;;1.93;100.00;102453.16;4988768;28;19926;-64
2023/01/26 09:17:59;;;;;;;;;;;;;;;1.98;100.00;102446.94;4971650;28;20424;-65
2023/01/26 09:20:26;;;;;;;;;;;;;;;2.04;100.00;102452.78;4985548;28;19926;-63
2023/01/26 09:22:53;;;;;;;;;;;;;;;2.07;100.00;102450.09;4991773;28;19929;-63
2023/01/26 09:25:19;;;;;;;;;;;;;;;2.14;100.00;102457.59;5005730;28;19964;-65
2023/01/26 09:27:46;;;;;;;;;;;;;;;2.17;100.00;102461.84;4992759;28;20348;-64
2023/01/26 09:30:12;;;;;;;;;;;;;;;2.21;100.00;102466.00;5001144;28;19936;-65
2023/01/26 09:32:39;;;;;;;;;;;;;;;2.24;100.00;102463.31;5000078;28;20443;-63
2023/01/26 09:35:10;;;;;;;;;;;;;;;2.25;100.00;102458.97;5004148;28;19937;-64
2023/01/26 09:37:40;;;;;;;;;;;;;;;2.31;100.00;102466.53;5006037;28;19940;-63
2023/01/26 09:40:14;;;;;;;;;;;;;;;2.33;100.00;102456.97;4989929;28;19937;-64
2023/01/26 09:43:00;;;;;;;;;;;;;;;2.38;100.00;102465.44;4981916;28;19926;-65
2023/01/26 09:45:37;;;;;;;;;;;;;;;2.40;100.00;102463.63;5000959;28;20402;-63
2023/01/26 09:48:22;;;;;;;;;;;;;;;2.43;100.00;102454.91;5001620;28;19948;-64
2023/01/26 09:50:56;;;;;;;;;;;;;;;2.48;100.00;102453.00;5002309;28;19932;-64
2023/01/26 09:53:29;;;;;;;;;;;;;;;2.51;100.00;102458.06;5008780;28;20275;-64
2023/01/26 09:55:56;;;;;;;;;;;;;;;2.53;100.00;102456.31;4993015;28;20408;-63
2023/01/26 09:58:34;;;;;;;;;;;;;;;2.59;100.00;102461.25;5005268;28;19961;-63
2023/01/26 10:01:01;;;;;;;;;;;;;;;2.64;100.00;102464.50;4988667;28;19933;-64
2023/01/26 10:03:34;;;;;;;;;;;;;;;2.72;100.00;102466.84;5004624;28;19930;-65
2023/01/26 10:06:20;;;;;;;;;;;;;;;2.76;100.00;102464.09;5000869;28;20357;-63
2023/01/26 10:08:47;;;;;;;;;;;;;;;2.79;100.00;102459.69;4998589;28;19926;-64
2023/01/26 10:11:16;;;;;;;;;;;;;;;2.85;100.00;102462.91;5003786;28;19942;-64
2023/01/26 10:13:47;;;;;;;;;;;;;;;2.91;100.00;102460.09;5001642;28;19929;-64
2023/01/26 10:16:15;;;;;;;;;;;;;;;3.00;100.00;102458.03;5008455;28;19957;-64
2023/01/26 10:18:59;;;;;;;;;;;;;;;3.06;100.00;102460.41;4987152;28;19953;-64
2023/01/26 10:21:30;;;;;;;;;;;;;;;3.16;100.00;102459.19;5004237;28;19936;-64
2023/01/26 10:23:58;;;;;;;;;;;;;;;3.18;100.00;102454.78;4996804;28;20388;-65
2023/01/26 10:26:29;;;;;;;;;;;;;;;3.24;100.00;102456.28;5003791;28;20473;-65
2023/01/26 10:28:55;;;;;;;;;;;;;;;3.29;100.00;102462.13;4999810;28;19940;-64
2023/01/26 10:31:23;;;;;;;;;;;;;;;3.32;100.00;102460.28;5000750;28;19929;-64
2023/01/26 10:33:52;;;;;;;;;;;;;;;3.36;100.00;102464.44;5007827;28;19973;-65
2023/01/26 10:36:18;;;;;;;;;;;;;;;3.39;100.00;102470.41;4981179;28;19936;-65
2023/01/26 10:38:45;;;;;;;;;;;;;;;3.47;100.00;102463.16;5002567;28;19929;-65
2023/01/26 10:41:18;;;;;;;;;;;;;;;3.52;100.00;102458.66;5002391;28;19971;-64
2023/01/26 10:44:11;;;;;;;;;;;;;;;3.59;100.00;102459.25;5006586;28;19980;-64
2023/01/26 10:46:38;;;;;;;;;;;;;;;3.67;100.00;102460.63;4976032;28;19925;-64
2023/01/26 10:49:08;;;;;;;;;;;;;;;3.75;100.00;102450.78;5000419;28;20445;-64
2023/01/26 10:51:36;;;;;;;;;;;;;;;3.84;100.00;102453.91;5004210;28;20392;-63
2023/01/26 10:54:21;;;;;;;;;;;;;;;3.88;100.00;102456.34;4996790;28;19940;-65
2023/01/26 10:56:52;;;;;;;;;;;;;;;3.92;100.00;102463.09;5002850;28;19925;-64
2023/01/26 10:59:22;;;;;;;;;;;;;;;3.97;100.00;102452.50;5001200;28;19929;-65
2023/01/26 11:02:14;;;;;;;;;;;;;;;4.00;100.00;102455.00;5000435;28;19936;-65
2023/01/26 11:05:00;;;;;;;;;;;;;;;4.05;100.00;102459.97;4976510;28;19926;-65
2023/01/26 11:07:30;;;;;;;;;;;;;;;4.11;100.00;102457.97;4999671;28;20297;-64
2023/01/26 11:10:14;;;;;;;;;;;;;;;4.14;100.00;102451.81;5001487;28;20889;-65
2023/01/26 11:12:41;;;;;;;;;;;;;;;4.18;100.00;102444.75;5005726;28;20408;-64
2023/01/26 11:15:18;;;;;;;;;;;;;;;4.24;100.00;102450.50;5000229;28;19932;-65
2023/01/26 11:17:50;;;;;;;;;;;;;;;4.33;100.00;102449.25;5001472;28;19926;-64
2023/01/26 11:20:35;;;;;;;;;;;;;;;4.41;100.00;102449.78;4999642;28;19933;-65
2023/01/26 11:23:11;;;;;;;;;;;;;;;4.46;100.00;102450.41;4986561;28;19926;-64
2023/01/26 11:25:47;;;;;;;;;;;;;;;4.53;100.00;102443.22;5007427;28;19925;-64
2023/01/26 11:28:33;;;;;;;;;;;;;;;4.60;100.00;102452.41;4997942;28;20028;-64
2023/01/26 11:31:08;;;;;;;;;;;;;;;4.68;100.00;102449.47;5006175;28;19953;-64
2023/01/26 11:33:35;;;;;;;;;;;;;;;4.76;100.00;102449.97;4971045;28;20016;-65
2023/01/26 11:36:04;;;;;;;;;;;;;;;4.82;100.00;102443.66;4989003;28;19972;-64
2023/01/26 11:38:41;;;;;;;;;;;;;;;4.90;100.00;102446.75;5001036;28;19936;-65
2023/01/26 11:41:08;;;;;;;;;;;;;;;5.01;100.00;102448.88;5007138;28;19968;-64
2023/01/26 11:43:43;;;;;;;;;;;;;;;5.09;100.00;102450.19;5007691;28;20286;-65
2023/01/26 11:46:13;;;;;;;;;;;;;;;5.21;100.00;102445.34;4984518;28;19929;-64
2023/01/26 11:48:48;;;;;;;;;;;;;;;5.35;100.00;102445.53;4995801;28;20301;-65
2023/01/26 11:51:24;;;;;;;;;;;;;;;5.44;100.00;102444.28;4999665;28;19980;-65
2023/01/26 11:53:56;;;;;;;;;;;;;;;5.52;100.00;102447.34;5006363;28;20336;-65
2023/01/26 11:56:25;;;;;;;;;;;;;;;5.61;100.00;102446.06;4988942;28;19937;-64
2023/01/26 11:58:54;;;;;;;;;;;;;;;5.71;100.00;102445.53;5002513;28;19936;-64
2023/01/26 12:01:27;;;;;;;;;;;;;;;5.80;100.00;102438.19;4994391;28;19929;-65
2023/01/26 12:03:54;;;;;;;;;;;;;;;5.92;100.00;102438.44;5003255;28;19926;-64
2023/01/26 12:06:29;;;;;;;;;;;;;;;6.01;100.00;102441.53;5006188;28;19936;-65
2023/01/26 12:09:01;;;;;;;;;;;;;;;6.11;100.00;102445.34;4999502;28;19930;-65
2023/01/26 12:11:37;;;;;;;;;;;;;;;6.18;100.00;102435.47;5006051;28;19984;-64
2023/01/26 12:14:22;;;;;;;;;;;;;;;6.30;100.00;102432.22;4994844;28;20286;-65
2023/01/26 12:16:56;;;;;;;;;;;;;;;6.41;100.00;102429.06;5002585;28;20305;-65
2023/01/26 12:19:53;;;;;;;;;;;;;;;6.49;100.00;102422.53;4997721;28;19929;-65
2023/01/26 12:22:41;;;;;;;;;;;;;;;6.58;100.00;102422.97;5004750;28;19937;-65
2023/01/26 12:25:07;;;;;;;;;;;;;;;6.69;100.00;102416.25;4995347;28;19925;-64
2023/01/26 12:27:54;;;;;;;;;;;;;;;6.80;100.00;102405.28;5001290;28;20023;-64
2023/01/26 12:30:21;;;;;;;;;;;;;;;6.94;100.00;102399.31;4994181;28;19929;-65
2023/01/26 12:32:47;;;;;;;;;;;;;;;6.97;100.00;102396.50;4989608;28;20334;-64
2023/01/26 12:35:19;;;;;;;;;;;;;;;7.08;100.00;102383.72;4999222;28;19933;-64
2023/01/26 12:37:54;;;;;;;;;;;;;;;7.17;100.00;102379.72;4989666;28;19941;-65
2023/01/26 12:40:38;;;;;;;;;;;;;;;7.33;100.00;102384.94;5005873;28;19980;-64
2023/01/26 12:43:04;;;;;;;;;;;;;;;7.51;100.00;102375.22;4966805;28;20017;-64
2023/01/26 12:45:33;;;;;;;;;;;;;;;7.66;100.00;102379.56;4987274;28;19931;-64
2023/01/26 12:48:09;;;;;;;;;;;;;;;7.71;100.00;102368.84;4980140;28;19976;-64
2023/01/26 12:50:42;;;;;;;;;;;;;;;7.80;100.00;102370.06;4988244;28;20452;-64
2023/01/26 12:53:15;;;;;;;;;;;;;;;7.83;100.00;102362.06;4991444;28;19937;-64
2023/01/26 12:55:45;;;;;;;;;;;;;;;7.80;100.00;102357.88;4994727;28;19976;-64
2023/01/26 12:58:20;;;;;;;;;;;;;;;7.80;100.00;102364.84;4977440;28;19930;-65
2023/01/26 13:00:59;;;;;;;;;;;;;;;7.83;100.00;102360.28;5004695;28;19929;-65
2023/01/26 13:03:31;;;;;;;;;;;;;;;7.77;100.00;102360.66;4999048;28;19934;-65
2023/01/26 13:06:00;;;;;;;;;;;;;;;7.90;100.00;102360.78;4987824;28;20298;-64
2023/01/26 13:08:47;;;;;;;;;;;;;;;7.96;100.00;102356.94;5003668;28;19929;-65
2023/01/26 13:11:33;;;;;;;;;;;;;;;7.98;100.00;102358.53;4975055;28;19929;-65
2023/01/26 13:14:00;;;;;;;;;;;;;;;7.94;100.00;102357.03;4988957;28;19926;-64
2023/01/26 13:16:31;;;;;;;;;;;;;;;7.96;100.00;102354.31;4994716;28;19929;-64
2023/01/26 13:18:59;;;;;;;;;;;;;;;7.94;100.00;102357.03;5008532;28;19929;-64
2023/01/26 13:21:34;;;;;;;;;;;;;;;7.94;100.00;102359.66;5000423;28;19929;-64
2023/01/26 13:24:01;;;;;;;;;;;;;;;7.93;100.00;102353.56;5004045;28;20024;-65
2023/01/26 13:26:30;;;;;;;;;;;;;;;7.91;100.00;102347.59;5004954;28;19929;-64